Time;durP1;ratioP1;P1;durP2;ratioP2;P2;SDS_P1;SDS_P2;PMS_P1;PMS_P2;Temp;Humidity;BMP_temperature;BMP_pressure;BME280_temperature;BME280_humidity;BME280_pressure;Samples;Min_cycle;Max_cycle;Signal;HPM_P1;HPM_P2
2022/05/09 00:01:45;;;;;;;7.78;1.30;;;11.50;1.00;;;;;;6171355;23;20031;-92
2022/05/09 00:04:16;;;;;;;4.68;1.70;;;11.60;1.00;;;;;;6195830;23;20071;-93
2022/05/09 00:07:04;;;;;;;6.03;1.15;;;11.40;1.00;;;;;;6221155;23;20016;-93
2022/05/09 00:09:52;;;;;;;2.22;1.27;;;11.40;1.00;;;;;;6220950;23;20020;-92
2022/05/09 00:12:19;;;;;;;5.13;1.30;;;11.80;1.00;;;;;;6195910;23;20024;-93
2022/05/09 00:14:46;;;;;;;4.47;1.50;;;11.80;1.00;;;;;;6221364;23;20016;-92
2022/05/09 00:17:13;;;;;;;8.85;1.45;;;11.90;1.00;;;;;;6195729;23;20329;-92
2022/05/09 00:19:40;;;;;;;4.13;1.30;;;11.80;1.00;;;;;;6220695;23;20487;-92
2022/05/09 00:22:07;;;;;;;3.00;0.95;;;11.90;1.00;;;;;;6221191;23;20054;-92
2022/05/09 00:24:35;;;;;;;6.18;1.50;;;12.00;1.00;;;;;;6219992;23;20439;-91
2022/05/09 00:27:03;;;;;;;4.45;1.15;;;11.90;1.00;;;;;;6247507;23;20016;-92
2022/05/09 00:29:30;;;;;;;4.15;1.50;;;11.90;1.00;;;;;;6221049;23;20016;-92
2022/05/09 00:31:57;;;;;;;5.05;1.45;;;11.90;1.00;;;;;;6195609;23;20099;-92
2022/05/09 00:34:25;;;;;;;3.88;1.23;;;11.80;1.00;;;;;;6196815;23;20024;-92
2022/05/09 00:36:52;;;;;;;7.85;1.40;;;11.90;1.00;;;;;;6196429;23;20043;-91
2022/05/09 00:39:20;;;;;;;10.98;1.65;;;11.90;1.00;;;;;;6195597;23;20383;-92
2022/05/09 00:41:47;;;;;;;4.75;1.27;;;11.90;1.00;;;;;;6195430;23;20082;-92
2022/05/09 00:44:26;;;;;;;4.68;1.33;;;11.80;1.00;;;;;;6194476;23;20024;-92
2022/05/09 00:46:55;;;;;;;3.85;1.23;;;11.90;1.00;;;;;;6220458;23;20012;-92
2022/05/09 00:49:34;;;;;;;5.20;1.23;;;11.80;1.00;;;;;;6219831;23;20537;-91
2022/05/09 00:52:14;;;;;;;4.95;1.20;;;11.80;1.00;;;;;;6219807;23;20051;-91
2022/05/09 00:54:49;;;;;;;4.70;1.33;;;11.70;1.00;;;;;;6195258;23;20020;-91
2022/05/09 00:57:25;;;;;;;4.60;1.10;;;11.70;1.00;;;;;;6219812;23;20024;-91
2022/05/09 00:59:57;;;;;;;6.53;1.50;;;11.50;1.00;;;;;;6219242;23;20076;-91
2022/05/09 01:02:25;;;;;;;2.58;1.23;;;11.70;1.00;;;;;;6219673;23;20024;-91
2022/05/09 01:04:54;;;;;;;3.10;1.02;;;11.70;1.00;;;;;;6194314;23;20023;-91
2022/05/09 01:07:23;;;;;;;4.45;1.10;;;11.50;1.00;;;;;;6219139;23;20016;-91
2022/05/09 01:09:51;;;;;;;10.98;2.63;;;11.60;1.00;;;;;;6219599;23;20051;-91
2022/05/09 01:12:25;;;;;;;3.50;1.15;;;11.60;1.00;;;;;;6219626;23;20050;-92
2022/05/09 01:14:54;;;;;;;7.13;1.95;;;11.50;1.00;;;;;;6219071;23;20012;-91
2022/05/09 01:17:23;;;;;;;5.82;2.17;;;11.40;1.00;;;;;;6219298;23;20053;-90
2022/05/09 01:19:53;;;;;;;9.05;2.10;;;11.30;1.00;;;;;;6194911;23;20058;-91
2022/05/09 01:22:23;;;;;;;7.78;1.77;;;11.20;1.00;;;;;;6220182;23;20050;-91
2022/05/09 01:24:53;;;;;;;6.55;1.33;;;11.00;1.00;;;;;;6219768;23;20078;-91
2022/05/09 01:27:20;;;;;;;3.20;0.88;;;11.30;1.00;;;;;;6219869;23;20016;-91
2022/05/09 01:29:56;;;;;;;3.70;1.02;;;11.40;1.00;;;;;;6220640;23;20495;-91
2022/05/09 01:32:50;;;;;;;2.33;0.98;;;11.50;1.00;;;;;;6221325;23;20019;-92
2022/05/09 01:35:31;;;;;;;3.58;1.52;;;11.50;1.00;;;;;;6195632;23;20043;-91
2022/05/09 01:38:28;;;;;;;2.80;1.35;;;11.50;1.00;;;;;;6220716;23;20054;-91
2022/05/09 01:40:56;;;;;;;6.00;2.38;;;11.40;1.00;;;;;;6224731;23;20020;-91
2022/05/09 01:43:33;;;;;;;3.08;1.33;;;11.30;1.00;;;;;;6195675;23;20044;-91
2022/05/09 01:46:02;;;;;;;6.38;1.52;;;11.40;1.00;;;;;;6220634;23;20055;-91
2022/05/09 01:51:16;;;;;;;3.90;1.30;;;11.40;1.00;;;;;;6220808;22;20106;-92
2022/05/09 01:53:52;;;;;;;5.05;1.30;;;11.50;1.00;;;;;;6196021;23;20444;-90
2022/05/09 01:56:22;;;;;;;6.13;1.42;;;11.50;1.00;;;;;;6220397;23;20017;-91
2022/05/09 01:58:49;;;;;;;8.95;1.40;;;11.50;1.00;;;;;;6196723;23;20467;-91
2022/05/09 02:01:18;;;;;;;7.45;1.30;;;11.40;1.00;;;;;;6195772;23;20016;-91
2022/05/09 02:03:45;;;;;;;4.82;1.13;;;11.40;1.00;;;;;;6195730;22;20044;-92
2022/05/09 02:06:17;;;;;;;2.30;1.15;;;11.40;1.00;;;;;;6196276;23;20016;-91
2022/05/09 02:08:45;;;;;;;3.75;1.25;;;11.40;1.00;;;;;;6221250;23;20321;-92
2022/05/09 02:11:13;;;;;;;4.68;1.45;;;11.40;1.00;;;;;;6221049;23;20544;-91
2022/05/09 02:13:40;;;;;;;5.60;1.77;;;11.40;1.00;;;;;;6220329;23;20070;-91
2022/05/09 02:16:09;;;;;;;6.82;1.38;;;11.10;1.00;;;;;;6196458;23;20020;-91
2022/05/09 02:18:38;;;;;;;3.08;1.10;;;11.10;1.00;;;;;;6231081;22;20451;-91
2022/05/09 02:21:05;;;;;;;3.63;1.10;;;11.20;1.00;;;;;;6219445;23;20048;-91
2022/05/09 02:23:33;;;;;;;6.43;1.88;;;11.20;1.00;;;;;;6219897;23;20024;-91
2022/05/09 02:26:01;;;;;;;4.22;1.50;;;11.20;1.00;;;;;;6219687;23;20478;-91
2022/05/09 02:28:28;;;;;;;4.57;1.40;;;11.20;1.00;;;;;;6221252;23;20514;-92
2022/05/09 02:30:56;;;;;;;2.92;1.38;;;11.20;1.00;;;;;;6196084;23;20013;-91
2022/05/09 02:33:23;;;;;;;3.53;1.30;;;11.20;1.00;;;;;;6221254;23;20021;-92
2022/05/09 02:35:50;;;;;;;4.47;1.23;;;11.20;1.00;;;;;;6195995;23;20027;-91
2022/05/09 02:38:18;;;;;;;5.13;1.73;;;11.20;1.00;;;;;;6221610;23;20024;-91
2022/05/09 02:40:46;;;;;;;3.20;1.48;;;11.20;1.00;;;;;;6196446;23;20031;-90
2022/05/09 02:43:13;;;;;;;5.57;1.40;;;11.20;1.00;;;;;;6221470;23;20343;-90
2022/05/09 02:45:40;;;;;;;4.18;1.75;;;11.10;1.00;;;;;;6196535;23;20451;-91
2022/05/09 02:48:09;;;;;;;7.32;1.98;;;11.10;1.00;;;;;;6195945;23;20091;-91
2022/05/09 02:50:36;;;;;;;4.85;1.33;;;11.10;1.00;;;;;;6221407;23;20067;-91
2022/05/09 02:53:04;;;;;;;3.10;1.23;;;11.10;1.00;;;;;;6221448;23;20027;-92
2022/05/09 02:55:31;;;;;;;6.05;2.53;;;11.10;1.00;;;;;;6220728;23;20024;-93
2022/05/09 02:58:00;;;;;;;3.97;1.30;;;10.90;1.00;;;;;;6196129;23;20028;-90
2022/05/09 03:00:32;;;;;;;3.75;1.15;;;10.70;1.00;;;;;;6220503;23;20020;-91
2022/05/09 03:05:46;;;;;;;10.77;1.63;;;10.90;1.00;;;;;;6220462;23;20452;-91
2022/05/09 03:08:15;;;;;;;2.08;1.05;;;11.00;1.00;;;;;;6196157;23;20103;-92
2022/05/09 03:10:42;;;;;;;4.20;1.42;;;11.00;1.00;;;;;;6196113;23;20039;-91
2022/05/09 03:13:12;;;;;;;2.67;0.98;;;11.00;1.00;;;;;;6195514;23;20020;-92
2022/05/09 03:15:43;;;;;;;3.67;1.40;;;11.00;1.00;;;;;;6221075;23;20071;-92
2022/05/09 03:18:11;;;;;;;5.82;1.60;;;11.00;1.00;;;;;;6195875;23;20486;-90
2022/05/09 03:20:39;;;;;;;4.10;1.30;;;10.90;1.00;;;;;;6196008;23;20070;-92
2022/05/09 03:23:08;;;;;;;3.95;1.35;;;10.90;1.00;;;;;;6195737;23;20032;-92
2022/05/09 03:25:36;;;;;;;6.70;1.60;;;10.90;1.00;;;;;;6195626;23;20020;-91
2022/05/09 03:28:06;;;;;;;4.47;1.42;;;10.90;1.00;;;;;;6195661;23;20016;-91
2022/05/09 03:30:34;;;;;;;7.88;1.92;;;10.90;1.00;;;;;;6220757;23;20027;-92
2022/05/09 03:33:01;;;;;;;6.22;2.28;;;10.80;1.00;;;;;;6195626;23;20104;-91
2022/05/09 03:35:28;;;;;;;5.72;1.25;;;10.70;1.00;;;;;;6195950;23;20051;-92
2022/05/09 03:37:55;;;;;;;8.43;1.40;;;10.70;1.00;;;;;;6220104;23;20511;-91
2022/05/09 03:40:22;;;;;;;8.15;1.60;;;10.80;1.00;;;;;;6220722;23;20020;-92
2022/05/09 03:42:49;;;;;;;3.42;1.30;;;10.70;1.00;;;;;;6194917;23;20020;-91
2022/05/09 03:45:17;;;;;;;2.58;1.02;;;10.50;1.00;;;;;;6195299;23;20418;-91
2022/05/09 03:47:44;;;;;;;6.22;1.45;;;10.60;1.00;;;;;;6195181;23;20023;-91
2022/05/09 03:50:13;;;;;;;6.80;1.80;;;10.70;1.00;;;;;;6196347;23;20130;-92
2022/05/09 03:52:43;;;;;;;6.82;1.52;;;10.60;1.00;;;;;;6196493;23;20012;-91
2022/05/09 03:55:12;;;;;;;4.80;1.65;;;10.50;1.00;;;;;;6218100;23;20028;-92
2022/05/09 03:57:59;;;;;;;6.80;1.30;;;10.50;1.00;;;;;;6215459;23;20039;-91
2022/05/09 04:00:29;;;;;;;2.70;1.15;;;10.60;1.00;;;;;;6195343;23;20368;-90
2022/05/09 04:02:56;;;;;;;3.05;1.65;;;10.50;1.00;;;;;;6220956;23;20347;-91
2022/05/09 04:05:27;;;;;;;4.80;1.65;;;10.60;1.00;;;;;;6195345;23;20095;-90
2022/05/09 04:07:54;;;;;;;4.53;2.30;;;10.60;1.00;;;;;;6195451;23;20022;-92
2022/05/09 04:10:24;;;;;;;3.03;1.20;;;10.50;1.00;;;;;;6219942;23;20439;-92
2022/05/09 04:12:51;;;;;;;2.67;1.25;;;10.50;1.00;;;;;;6195474;23;20051;-92
2022/05/09 04:18:06;;;;;;;5.25;1.30;;;10.40;1.00;;;;;;6220027;23;20330;-92
2022/05/09 04:20:35;;;;;;;7.28;1.35;;;10.40;1.00;;;;;;6220671;23;20020;-91
2022/05/09 04:23:02;;;;;;;5.53;1.50;;;10.50;1.00;;;;;;6246514;23;20055;-91
2022/05/09 04:25:31;;;;;;;7.18;1.65;;;10.30;1.00;;;;;;6220243;23;20383;-92
2022/05/09 04:31:55;;;;;;;8.68;2.40;;;10.00;38.90;;;;;;6249442;23;20046;-94
2022/05/09 04:34:22;;;;;;;5.68;1.73;;;9.90;99.90;;;;;;6223219;23;20016;-92
2022/05/09 04:36:50;;;;;;;8.30;2.22;;;10.10;99.90;;;;;;6227245;23;20392;-92
2022/05/09 04:40:24;;;;;;;6.70;1.48;;;10.30;99.90;;;;;;6251902;23;20016;-96
2022/05/09 04:43:14;;;;;;;13.05;2.65;;;10.10;99.90;;;;;;6193936;23;20019;-94
2022/05/09 04:45:48;;;;;;;9.02;2.55;;;10.10;99.90;;;;;;6170210;23;20047;-91
2022/05/09 04:48:22;;;;;;;4.45;1.40;;;10.00;99.90;;;;;;6193967;23;20008;-92
2022/05/09 04:50:49;;;;;;;4.28;1.35;;;10.10;99.90;;;;;;6166240;23;20443;-93
2022/05/09 04:53:19;;;;;;;5.93;1.45;;;10.20;99.90;;;;;;6215297;23;20381;-93
2022/05/09 04:55:47;;;;;;;3.72;1.83;;;10.30;99.90;;;;;;6165788;23;20040;-92
2022/05/09 04:58:17;;;;;;;12.18;2.50;;;10.30;99.90;;;;;;6189678;23;20028;-91
2022/05/09 05:00:44;;;;;;;6.85;1.85;;;10.20;99.90;;;;;;6164271;23;20039;-89
2022/05/09 05:03:12;;;;;;;6.28;1.80;;;10.30;99.90;;;;;;6166107;23;20028;-91
2022/05/09 05:09:55;;;;;;;2.88;1.58;;;10.10;99.90;;;;;;6217996;23;20051;-93
2022/05/09 05:12:29;;;;;;;7.35;1.88;;;10.30;99.90;;;;;;6191368;23;20027;-91
2022/05/09 05:15:36;;;;;;;;;;;;;;;;;;;;;
2022/05/09 05:18:32;;;;;;;9.80;2.90;;;10.40;99.90;;;;;;6189252;23;20031;-92
2022/05/09 05:21:24;;;;;;;5.07;1.23;;;10.40;99.90;;;;;;6169596;23;20402;-92
2022/05/09 05:23:51;;;;;;;6.88;2.05;;;10.40;99.90;;;;;;6189265;23;20027;-91
2022/05/09 05:26:18;;;;;;;5.30;1.52;;;10.30;99.90;;;;;;6214335;23;20024;-91
2022/05/09 05:28:48;;;;;;;8.30;1.85;;;10.40;99.90;;;;;;6189335;23;20009;-91
2022/05/09 05:31:19;;;;;;;6.75;1.98;;;10.40;99.90;;;;;;6189728;23;20017;-91
2022/05/09 05:33:46;;;;;;;4.40;1.70;;;10.40;99.90;;;;;;6164181;23;20017;-92
2022/05/09 05:36:21;;;;;;;6.00;1.97;;;10.40;99.90;;;;;;6191008;23;20403;-93
2022/05/09 05:38:51;;;;;;;5.93;1.85;;;10.40;99.90;;;;;;6166259;23;20475;-92
2022/05/09 05:41:22;;;;;;;2.90;1.80;;;10.50;99.90;;;;;;6190383;23;20021;-92
2022/05/09 05:43:49;;;;;;;6.68;2.15;;;10.40;99.90;;;;;;6189621;23;20111;-92
2022/05/09 05:46:17;;;;;;;9.77;2.42;;;10.40;99.90;;;;;;6214394;23;20024;-92
2022/05/09 05:48:44;;;;;;;6.63;1.73;;;10.40;99.90;;;;;;6214700;23;20506;-92
2022/05/09 05:51:14;;;;;;;9.95;2.83;;;10.40;99.90;;;;;;6235834;23;20027;-93
2022/05/09 05:53:45;;;;;;;2.50;1.27;;;10.50;99.90;;;;;;6195059;23;20024;-93
2022/05/09 05:56:13;;;;;;;5.75;1.77;;;10.50;99.90;;;;;;6219696;23;20024;-91
2022/05/09 05:58:40;;;;;;;2.75;1.60;;;10.50;99.90;;;;;;6245143;23;20428;-91
2022/05/09 06:01:07;;;;;;;10.30;3.75;;;10.60;99.90;;;;;;6194911;23;20024;-91
2022/05/09 06:03:34;;;;;;;4.95;1.73;;;10.60;99.90;;;;;;6195872;23;20081;-91
2022/05/09 06:06:01;;;;;;;6.15;2.35;;;10.70;99.90;;;;;;6196412;23;20027;-91
2022/05/09 06:08:28;;;;;;;6.13;2.08;;;10.70;99.90;;;;;;6221155;23;20020;-92
2022/05/09 06:10:55;;;;;;;5.03;2.03;;;10.80;99.90;;;;;;6246532;23;20047;-93
2022/05/09 06:13:24;;;;;;;6.60;1.42;;;10.90;99.90;;;;;;6245469;23;20043;-93
2022/05/09 06:15:51;;;;;;;5.95;1.60;;;10.90;99.90;;;;;;6246110;23;20020;-94
2022/05/09 06:18:21;;;;;;;8.32;2.60;;;10.90;99.90;;;;;;6221219;23;20024;-94
2022/05/09 06:20:48;;;;;;;3.83;1.73;;;11.00;99.90;;;;;;6248451;23;20023;-93
2022/05/09 06:23:19;;;;;;;8.27;2.40;;;11.00;99.90;;;;;;6221152;23;20020;-92
2022/05/09 06:25:47;;;;;;;5.88;2.83;;;11.00;99.90;;;;;;6196104;23;20103;-91
2022/05/09 06:28:16;;;;;;;15.48;3.60;;;11.10;99.90;;;;;;6221284;23;20066;-93
2022/05/09 06:30:44;;;;;;;9.95;2.65;;;11.20;99.90;;;;;;6221142;23;20028;-94
2022/05/09 06:33:25;;;;;;;5.70;2.40;;;11.20;99.90;;;;;;6247437;23;20016;-94
2022/05/09 06:36:07;;;;;;;7.40;1.92;;;11.10;99.90;;;;;;6196706;23;20386;-93
2022/05/09 06:59:25;;;;;;;7.63;2.35;;;11.60;99.90;;;;;;6241953;22;20031;-91
2022/05/09 07:01:54;;;;;;;12.68;3.78;;;11.60;99.90;;;;;;6235276;23;20016;-89
2022/05/09 07:04:22;;;;;;;11.07;2.80;;;11.80;99.90;;;;;;6238434;23;20433;-88
2022/05/09 07:06:48;;;;;;;11.10;3.45;;;11.80;99.90;;;;;;6214808;23;20031;-88
2022/05/09 07:09:16;;;;;;;12.68;3.33;;;11.80;99.90;;;;;;6216373;23;20012;-90
2022/05/09 15:23:55;;;;;;;1.73;1.10;;;25.80;1.00;;;;;;6259644;22;20035;-83
2022/05/09 15:26:27;;;;;;;3.65;1.88;;;25.80;1.00;;;;;;6243825;23;20027;-84
2022/05/09 15:28:54;;;;;;;3.83;1.67;;;25.80;1.00;;;;;;6245085;23;20043;-88
2022/05/09 15:31:22;;;;;;;3.22;1.75;;;25.90;1.00;;;;;;6217441;23;20020;-83
2022/05/09 15:34:04;;;;;;;5.07;1.63;;;26.00;1.00;;;;;;6246144;22;20016;-92
2022/05/09 21:10:34;;;;;;;2.65;1.08;;;18.50;1.00;;;;;;6246294;23;20087;-90
2022/05/09 21:13:04;;;;;;;3.72;1.30;;;18.40;1.00;;;;;;6242106;23;20024;-90
2022/05/09 21:15:30;;;;;;;2.30;1.20;;;18.40;1.00;;;;;;6194205;23;20025;-90
2022/05/09 21:17:58;;;;;;;4.40;1.27;;;18.40;1.00;;;;;;6188184;23;20416;-90
2022/05/09 21:20:25;;;;;;;2.97;1.13;;;18.30;1.00;;;;;;6212787;23;20035;-90
2022/05/09 21:22:52;;;;;;;2.13;1.08;;;18.30;1.00;;;;;;6186289;23;20442;-89
2022/05/09 21:25:33;;;;;;;3.20;1.48;;;18.20;1.00;;;;;;6186890;23;20356;-90
2022/05/09 21:28:05;;;;;;;2.15;1.17;;;18.20;1.00;;;;;;6187056;23;20436;-91
2022/05/09 21:30:35;;;;;;;2.30;1.30;;;18.20;1.00;;;;;;6211863;23;20079;-91
2022/05/09 21:33:04;;;;;;;3.45;1.10;;;18.10;1.00;;;;;;6211306;23;20500;-91
2022/05/09 21:35:40;;;;;;;3.13;1.27;;;18.10;1.00;;;;;;6212019;23;20541;-92
2022/05/09 21:41:19;;;;;;;5.25;1.52;;;18.00;1.00;;;;;;6217468;23;20440;-92
2022/05/09 21:43:46;;;;;;;;;;;17.90;1.00;;;;;;6192589;22;20047;-90
2022/05/09 21:46:14;;;;;;;2.35;1.10;;;17.90;1.00;;;;;;6216810;23;19954;-88
2022/05/09 21:48:42;;;;;;;3.83;1.30;;;17.90;1.00;;;;;;6217245;23;20040;-89
2022/05/09 21:51:15;;;;;;;2.20;1.10;;;17.80;1.00;;;;;;6216446;23;20016;-91
2022/05/09 21:53:43;;;;;;;2.30;1.15;;;17.80;1.00;;;;;;6216558;23;20066;-90
2022/05/09 21:56:12;;;;;;;4.40;1.58;;;17.80;1.00;;;;;;6191603;23;20725;-91
2022/05/09 21:58:42;;;;;;;3.42;1.83;;;17.70;1.00;;;;;;6191999;23;20027;-90
2022/05/09 22:01:17;;;;;;;3.35;1.20;;;17.70;1.00;;;;;;6191404;23;20455;-88
2022/05/09 22:03:44;;;;;;;4.00;1.60;;;17.60;1.00;;;;;;6216577;22;20024;-90
2022/05/09 22:06:22;;;;;;;6.85;1.85;;;17.60;1.00;;;;;;6217350;23;20435;-90
2022/05/09 22:08:49;;;;;;;2.88;1.33;;;17.60;1.00;;;;;;6216470;23;20044;-90
2022/05/09 22:11:16;;;;;;;2.42;1.17;;;17.50;1.00;;;;;;6217190;23;20036;-90
2022/05/09 22:13:44;;;;;;;4.45;1.50;;;17.50;1.00;;;;;;6244374;23;20022;-90
2022/05/09 22:16:11;;;;;;;2.88;1.30;;;17.50;1.00;;;;;;6217149;23;20012;-89
2022/05/09 22:18:38;;;;;;;2.13;1.20;;;17.40;1.00;;;;;;6243862;23;20394;-91
2022/05/09 22:21:05;;;;;;;5.25;1.63;;;17.40;1.00;;;;;;6192156;23;20027;-90
2022/05/09 22:23:32;;;;;;;2.83;1.25;;;17.40;1.00;;;;;;6216112;23;20147;-90
2022/05/09 22:26:00;;;;;;;2.60;1.45;;;17.30;1.00;;;;;;6243157;22;20020;-90
2022/05/09 22:28:28;;;;;;;3.63;1.55;;;17.30;1.00;;;;;;6191160;23;20023;-90
2022/05/09 22:30:56;;;;;;;5.18;1.70;;;17.20;1.00;;;;;;6217066;23;20039;-90
2022/05/09 22:33:23;;;;;;;5.28;1.90;;;17.20;1.00;;;;;;6216596;23;20016;-90
2022/05/09 22:35:52;;;;;;;4.38;1.40;;;17.20;1.00;;;;;;6217210;23;20020;-91
2022/05/09 22:38:25;;;;;;;3.92;1.85;;;17.10;1.00;;;;;;6243488;23;20021;-90
2022/05/09 22:41:11;;;;;;;3.78;1.55;;;17.10;1.00;;;;;;6195937;23;20016;-90
2022/05/09 22:43:38;;;;;;;2.72;1.75;;;17.10;1.00;;;;;;6167917;23;20020;-91
2022/05/09 22:46:05;;;;;;;3.72;1.85;;;17.00;1.00;;;;;;6219118;23;20020;-89
2022/05/09 22:48:32;;;;;;;5.97;2.20;;;17.00;1.00;;;;;;6218849;23;20016;-90
2022/05/09 22:50:59;;;;;;;5.45;1.92;;;17.00;1.00;;;;;;6219173;23;20043;-90
2022/05/09 22:53:29;;;;;;;3.67;1.65;;;16.90;1.00;;;;;;6218538;23;20024;-90
2022/05/09 22:55:59;;;;;;;3.13;1.50;;;16.80;1.00;;;;;;6193622;23;20439;-90
2022/05/09 22:58:38;;;;;;;6.22;2.03;;;16.90;1.00;;;;;;6218656;23;20020;-89
2022/05/09 23:01:07;;;;;;;6.25;2.53;;;16.80;1.00;;;;;;6245418;23;20503;-90
2022/05/09 23:03:34;;;;;;;4.20;1.90;;;16.80;1.00;;;;;;6193174;23;20020;-89
2022/05/09 23:06:04;;;;;;;5.93;1.75;;;16.70;1.00;;;;;;6218753;23;20028;-90
2022/05/09 23:08:31;;;;;;;4.90;2.40;;;16.70;1.00;;;;;;6193749;22;20020;-90
2022/05/09 23:11:00;;;;;;;4.25;2.13;;;16.70;1.00;;;;;;6218736;23;20032;-90
2022/05/09 23:13:31;;;;;;;2.58;1.95;;;16.70;1.00;;;;;;6244164;23;20067;-89
2022/05/09 23:15:59;;;;;;;4.38;2.00;;;16.70;1.00;;;;;;6194368;23;20022;-90
2022/05/09 23:18:27;;;;;;;3.50;2.10;;;16.60;1.00;;;;;;6219075;23;20043;-90
2022/05/09 23:20:55;;;;;;;4.18;2.17;;;16.60;1.00;;;;;;6194832;23;20073;-90
2022/05/09 23:23:22;;;;;;;3.30;2.30;;;16.60;1.00;;;;;;6218715;23;20016;-90
2022/05/09 23:25:51;;;;;;;6.97;1.67;;;16.60;1.00;;;;;;6218385;23;20024;-91
2022/05/09 23:28:20;;;;;;;5.47;2.13;;;16.50;1.00;;;;;;6193839;23;20051;-89
2022/05/09 23:30:52;;;;;;;4.43;2.45;;;16.50;1.00;;;;;;6193122;23;20051;-90
2022/05/09 23:33:24;;;;;;;6.75;2.40;;;16.50;1.00;;;;;;6218027;23;20016;-90
2022/05/09 23:35:52;;;;;;;7.45;2.97;;;16.50;1.00;;;;;;6193234;23;20069;-90
2022/05/09 23:38:21;;;;;;;4.65;2.28;;;16.40;1.00;;;;;;6250210;23;20020;-91
2022/05/09 23:40:51;;;;;;;5.95;3.03;;;16.40;1.00;;;;;;6199636;23;20020;-91
2022/05/09 23:43:19;;;;;;;4.35;2.33;;;16.40;1.00;;;;;;6202955;23;20024;-90
2022/05/09 23:45:46;;;;;;;5.22;2.35;;;16.40;1.00;;;;;;6220536;23;20028;-90
2022/05/09 23:48:14;;;;;;;7.18;3.13;;;16.30;1.00;;;;;;6193215;23;20098;-90
2022/05/09 23:50:42;;;;;;;3.95;1.98;;;16.30;1.00;;;;;;6217584;23;20043;-90
2022/05/09 23:53:10;;;;;;;3.38;2.58;;;16.30;1.00;;;;;;6192996;23;20024;-90
2022/05/09 23:55:37;;;;;;;5.53;2.40;;;16.30;1.00;;;;;;6217392;23;20106;-91
2022/05/09 23:58:05;;;;;;;4.55;2.40;;;16.30;1.00;;;;;;6192932;23;20039;-91
